sensor_id;sensor_type;location;lat;lon;timestamp;temperature;humidity
73955;DHT22;62306;52.516;13.290;2024-01-30T00:01:06;4.70;99.90
73955;DHT22;62306;52.516;13.290;2024-01-30T00:03:33;4.70;99.90
73955;DHT22;62306;52.516;13.290;2024-01-30T00:06:00;4.60;99.90
73955;DHT22;62306;52.516;13.290;2024-01-30T00:08:30;4.60;99.90
73955;DHT22;62306;52.516;13.290;2024-01-30T00:10:57;4.50;99.90
73955;DHT22;62306;52.516;13.290;2024-01-30T00:13:24;4.60;99.90
73955;DHT22;62306;52.516;13.290;2024-01-30T00:15:51;4.50;99.90
73955;DHT22;62306;52.516;13.290;2024-01-30T00:18:19;4.50;99.90
73955;DHT22;62306;52.516;13.290;2024-01-30T00:20:47;4.50;99.90
73955;DHT22;62306;52.516;13.290;2024-01-30T00:23:14;4.50;99.90
73955;DHT22;62306;52.516;13.290;2024-01-30T00:25:42;4.50;99.90
73955;DHT22;62306;52.516;13.290;2024-01-30T00:28:09;4.40;99.90
73955;DHT22;62306;52.516;13.290;2024-01-30T00:30:36;4.40;99.90
73955;DHT22;62306;52.516;13.290;2024-01-30T00:33:03;4.40;99.90
73955;DHT22;62306;52.516;13.290;2024-01-30T00:35:30;4.40;99.90
73955;DHT22;62306;52.516;13.290;2024-01-30T00:37:57;4.40;99.90
73955;DHT22;62306;52.516;13.290;2024-01-30T00:40:24;4.40;99.90
73955;DHT22;62306;52.516;13.290;2024-01-30T00:42:53;4.40;99.90
73955;DHT22;62306;52.516;13.290;2024-01-30T00:45:19;4.40;99.90
73955;DHT22;62306;52.516;13.290;2024-01-30T00:47:46;4.30;99.90
73955;DHT22;62306;52.516;13.290;2024-01-30T00:50:13;4.30;99.90
73955;DHT22;62306;52.516;13.290;2024-01-30T00:52:40;4.20;99.90
73955;DHT22;62306;52.516;13.290;2024-01-30T00:55:10;4.20;99.90
73955;DHT22;62306;52.516;13.290;2024-01-30T00:57:37;4.20;99.90
73955;DHT22;62306;52.516;13.290;2024-01-30T01:00:07;4.20;99.90
73955;DHT22;62306;52.516;13.290;2024-01-30T01:02:35;4.20;99.90
73955;DHT22;62306;52.516;13.290;2024-01-30T01:05:02;4.20;99.90
73955;DHT22;62306;52.516;13.290;2024-01-30T01:07:29;4.20;99.90
73955;DHT22;62306;52.516;13.290;2024-01-30T01:09:55;4.20;99.90
73955;DHT22;62306;52.516;13.290;2024-01-30T01:12:22;4.10;99.90
73955;DHT22;62306;52.516;13.290;2024-01-30T01:14:49;4.10;99.90
73955;DHT22;62306;52.516;13.290;2024-01-30T01:17:18;4.20;99.90
73955;DHT22;62306;52.516;13.290;2024-01-30T01:19:45;4.20;99.90
73955;DHT22;62306;52.516;13.290;2024-01-30T01:22:12;4.20;99.90
73955;DHT22;62306;52.516;13.290;2024-01-30T01:24:39;4.20;99.90
73955;DHT22;62306;52.516;13.290;2024-01-30T01:27:05;4.20;99.90
73955;DHT22;62306;52.516;13.290;2024-01-30T01:29:32;4.20;99.90
73955;DHT22;62306;52.516;13.290;2024-01-30T01:31:59;4.20;99.90
73955;DHT22;62306;52.516;13.290;2024-01-30T01:34:28;4.20;99.90
73955;DHT22;62306;52.516;13.290;2024-01-30T01:36:54;4.20;99.90
73955;DHT22;62306;52.516;13.290;2024-01-30T01:39:22;4.10;99.90
73955;DHT22;62306;52.516;13.290;2024-01-30T01:41:49;4.10;99.90
73955;DHT22;62306;52.516;13.290;2024-01-30T01:44:17;4.10;99.90
73955;DHT22;62306;52.516;13.290;2024-01-30T01:46:44;4.10;99.90
73955;DHT22;62306;52.516;13.290;2024-01-30T01:49:12;4.10;99.90
73955;DHT22;62306;52.516;13.290;2024-01-30T01:51:41;4.10;99.90
73955;DHT22;62306;52.516;13.290;2024-01-30T01:54:10;4.00;99.90
73955;DHT22;62306;52.516;13.290;2024-01-30T01:56:38;4.10;99.90
73955;DHT22;62306;52.516;13.290;2024-01-30T01:59:07;4.00;99.90
73955;DHT22;62306;52.516;13.290;2024-01-30T02:01:35;4.00;99.90
73955;DHT22;62306;52.516;13.290;2024-01-30T02:04:03;4.00;99.90
73955;DHT22;62306;52.516;13.290;2024-01-30T02:06:30;4.00;99.90
73955;DHT22;62306;52.516;13.290;2024-01-30T02:08:59;4.00;99.90
73955;DHT22;62306;52.516;13.290;2024-01-30T02:11:26;4.00;99.90
73955;DHT22;62306;52.516;13.290;2024-01-30T02:13:54;4.00;99.90
73955;DHT22;62306;52.516;13.290;2024-01-30T02:16:21;4.00;99.90
73955;DHT22;62306;52.516;13.290;2024-01-30T02:18:47;4.00;99.90
73955;DHT22;62306;52.516;13.290;2024-01-30T02:21:16;4.00;99.90
73955;DHT22;62306;52.516;13.290;2024-01-30T02:23:44;4.00;99.90
73955;DHT22;62306;52.516;13.290;2024-01-30T02:26:13;4.00;99.90
73955;DHT22;62306;52.516;13.290;2024-01-30T02:28:40;4.00;99.90
73955;DHT22;62306;52.516;13.290;2024-01-30T02:31:07;4.00;99.90
73955;DHT22;62306;52.516;13.290;2024-01-30T02:33:34;4.00;99.90
73955;DHT22;62306;52.516;13.290;2024-01-30T02:36:00;4.00;99.90
73955;DHT22;62306;52.516;13.290;2024-01-30T02:38:29;4.00;99.90
73955;DHT22;62306;52.516;13.290;2024-01-30T02:40:56;4.10;99.90
73955;DHT22;62306;52.516;13.290;2024-01-30T02:43:23;4.10;99.90
73955;DHT22;62306;52.516;13.290;2024-01-30T02:45:50;4.10;99.90
73955;DHT22;62306;52.516;13.290;2024-01-30T02:48:17;4.10;99.90
73955;DHT22;62306;52.516;13.290;2024-01-30T02:50:44;4.00;99.90
73955;DHT22;62306;52.516;13.290;2024-01-30T02:53:11;4.00;99.90
73955;DHT22;62306;52.516;13.290;2024-01-30T02:55:39;4.00;99.90
73955;DHT22;62306;52.516;13.290;2024-01-30T02:58:06;4.00;99.90
73955;DHT22;62306;52.516;13.290;2024-01-30T03:00:33;3.90;99.90
73955;DHT22;62306;52.516;13.290;2024-01-30T03:03:00;3.90;99.90
73955;DHT22;62306;52.516;13.290;2024-01-30T03:05:27;3.90;99.90
73955;DHT22;62306;52.516;13.290;2024-01-30T03:07:54;3.90;99.90
73955;DHT22;62306;52.516;13.290;2024-01-30T03:10:21;3.90;99.90
73955;DHT22;62306;52.516;13.290;2024-01-30T03:12:49;3.90;99.90
73955;DHT22;62306;52.516;13.290;2024-01-30T03:15:16;3.90;99.90
73955;DHT22;62306;52.516;13.290;2024-01-30T03:17:43;3.90;99.90
73955;DHT22;62306;52.516;13.290;2024-01-30T03:20:11;3.90;99.90
73955;DHT22;62306;52.516;13.290;2024-01-30T03:22:38;3.80;99.90
73955;DHT22;62306;52.516;13.290;2024-01-30T03:25:05;3.80;99.90
73955;DHT22;62306;52.516;13.290;2024-01-30T03:27:32;3.80;99.90
73955;DHT22;62306;52.516;13.290;2024-01-30T03:30:01;3.70;99.90
73955;DHT22;62306;52.516;13.290;2024-01-30T03:32:28;3.70;99.90
73955;DHT22;62306;52.516;13.290;2024-01-30T03:34:55;3.70;99.90
73955;DHT22;62306;52.516;13.290;2024-01-30T03:37:23;3.70;99.90
73955;DHT22;62306;52.516;13.290;2024-01-30T03:39:50;3.70;99.90
73955;DHT22;62306;52.516;13.290;2024-01-30T03:42:17;3.70;99.90
73955;DHT22;62306;52.516;13.290;2024-01-30T03:44:44;3.60;99.90
73955;DHT22;62306;52.516;13.290;2024-01-30T03:47:12;3.60;99.90
73955;DHT22;62306;52.516;13.290;2024-01-30T03:49:40;3.60;99.90
73955;DHT22;62306;52.516;13.290;2024-01-30T03:52:07;3.60;99.90
73955;DHT22;62306;52.516;13.290;2024-01-30T03:54:34;3.60;99.90
73955;DHT22;62306;52.516;13.290;2024-01-30T03:57:01;3.60;99.90
73955;DHT22;62306;52.516;13.290;2024-01-30T03:59:28;3.70;99.90
73955;DHT22;62306;52.516;13.290;2024-01-30T04:01:55;3.60;99.90
73955;DHT22;62306;52.516;13.290;2024-01-30T04:04:23;3.60;99.90
73955;DHT22;62306;52.516;13.290;2024-01-30T04:06:50;3.60;99.90
73955;DHT22;62306;52.516;13.290;2024-01-30T04:09:17;3.60;99.90
73955;DHT22;62306;52.516;13.290;2024-01-30T04:11:44;3.60;99.90
73955;DHT22;62306;52.516;13.290;2024-01-30T04:14:11;3.50;99.90
73955;DHT22;62306;52.516;13.290;2024-01-30T04:16:38;3.60;99.90
73955;DHT22;62306;52.516;13.290;2024-01-30T04:19:05;3.60;99.90
73955;DHT22;62306;52.516;13.290;2024-01-30T04:21:33;3.60;99.90
73955;DHT22;62306;52.516;13.290;2024-01-30T04:24:00;3.60;99.90
73955;DHT22;62306;52.516;13.290;2024-01-30T04:26:27;3.60;99.90
73955;DHT22;62306;52.516;13.290;2024-01-30T04:28:54;3.50;99.90
73955;DHT22;62306;52.516;13.290;2024-01-30T04:31:21;3.80;99.90
73955;DHT22;62306;52.516;13.290;2024-01-30T04:33:48;3.50;99.90
73955;DHT22;62306;52.516;13.290;2024-01-30T04:36:14;3.60;99.90
73955;DHT22;62306;52.516;13.290;2024-01-30T04:38:43;3.50;99.90
73955;DHT22;62306;52.516;13.290;2024-01-30T04:41:10;3.50;99.90
73955;DHT22;62306;52.516;13.290;2024-01-30T04:43:37;3.50;99.90
73955;DHT22;62306;52.516;13.290;2024-01-30T04:46:04;3.50;99.90
73955;DHT22;62306;52.516;13.290;2024-01-30T04:48:32;3.50;99.90
73955;DHT22;62306;52.516;13.290;2024-01-30T04:50:58;3.50;99.90
73955;DHT22;62306;52.516;13.290;2024-01-30T04:53:29;3.50;99.90
73955;DHT22;62306;52.516;13.290;2024-01-30T04:55:57;3.50;99.90
73955;DHT22;62306;52.516;13.290;2024-01-30T04:58:24;3.50;99.90
73955;DHT22;62306;52.516;13.290;2024-01-30T05:00:51;3.50;99.90
73955;DHT22;62306;52.516;13.290;2024-01-30T05:03:19;3.50;99.90
73955;DHT22;62306;52.516;13.290;2024-01-30T05:05:48;3.50;99.90
73955;DHT22;62306;52.516;13.290;2024-01-30T05:08:15;3.50;99.90
73955;DHT22;62306;52.516;13.290;2024-01-30T05:10:41;3.50;99.90
73955;DHT22;62306;52.516;13.290;2024-01-30T05:13:10;3.50;99.90
73955;DHT22;62306;52.516;13.290;2024-01-30T05:15:39;3.50;99.90
73955;DHT22;62306;52.516;13.290;2024-01-30T05:18:06;3.50;99.90
73955;DHT22;62306;52.516;13.290;2024-01-30T05:20:33;3.40;99.90
73955;DHT22;62306;52.516;13.290;2024-01-30T05:23:00;3.80;99.90
73955;DHT22;62306;52.516;13.290;2024-01-30T05:25:27;3.50;99.90
73955;DHT22;62306;52.516;13.290;2024-01-30T05:27:54;3.40;99.90
73955;DHT22;62306;52.516;13.290;2024-01-30T05:30:23;3.40;99.90
73955;DHT22;62306;52.516;13.290;2024-01-30T05:32:50;3.40;99.90
73955;DHT22;62306;52.516;13.290;2024-01-30T05:35:18;3.40;99.90
73955;DHT22;62306;52.516;13.290;2024-01-30T05:37:47;3.40;99.90
73955;DHT22;62306;52.516;13.290;2024-01-30T05:40:14;3.40;99.90
73955;DHT22;62306;52.516;13.290;2024-01-30T05:42:41;3.40;99.90
73955;DHT22;62306;52.516;13.290;2024-01-30T05:45:09;3.40;99.90
73955;DHT22;62306;52.516;13.290;2024-01-30T05:47:37;3.40;99.90
73955;DHT22;62306;52.516;13.290;2024-01-30T05:50:05;3.40;99.90
73955;DHT22;62306;52.516;13.290;2024-01-30T05:52:32;3.30;99.90
73955;DHT22;62306;52.516;13.290;2024-01-30T05:54:59;3.40;99.90
73955;DHT22;62306;52.516;13.290;2024-01-30T05:57:26;3.40;99.90
73955;DHT22;62306;52.516;13.290;2024-01-30T05:59:53;3.30;99.90
73955;DHT22;62306;52.516;13.290;2024-01-30T06:02:20;3.30;99.90
73955;DHT22;62306;52.516;13.290;2024-01-30T06:04:48;3.30;99.90
73955;DHT22;62306;52.516;13.290;2024-01-30T06:07:15;3.40;99.90
73955;DHT22;62306;52.516;13.290;2024-01-30T06:09:43;3.30;99.90
73955;DHT22;62306;52.516;13.290;2024-01-30T06:12:11;3.40;99.90
73955;DHT22;62306;52.516;13.290;2024-01-30T06:14:38;3.30;99.90
73955;DHT22;62306;52.516;13.290;2024-01-30T06:17:06;3.40;99.90
73955;DHT22;62306;52.516;13.290;2024-01-30T06:19:33;3.40;99.90
73955;DHT22;62306;52.516;13.290;2024-01-30T06:22:03;3.40;99.90
73955;DHT22;62306;52.516;13.290;2024-01-30T06:24:30;3.40;99.90
73955;DHT22;62306;52.516;13.290;2024-01-30T06:26:57;3.40;99.90
73955;DHT22;62306;52.516;13.290;2024-01-30T06:29:24;3.40;99.90
73955;DHT22;62306;52.516;13.290;2024-01-30T06:31:52;3.40;99.90
73955;DHT22;62306;52.516;13.290;2024-01-30T06:34:19;3.40;99.90
73955;DHT22;62306;52.516;13.290;2024-01-30T06:36:46;3.40;99.90
73955;DHT22;62306;52.516;13.290;2024-01-30T06:39:14;3.40;99.90
73955;DHT22;62306;52.516;13.290;2024-01-30T06:41:41;3.40;99.90
73955;DHT22;62306;52.516;13.290;2024-01-30T06:44:08;3.40;99.90
73955;DHT22;62306;52.516;13.290;2024-01-30T06:46:35;3.60;99.90
73955;DHT22;62306;52.516;13.290;2024-01-30T06:49:02;3.50;99.90
73955;DHT22;62306;52.516;13.290;2024-01-30T06:51:29;3.50;99.90
73955;DHT22;62306;52.516;13.290;2024-01-30T06:53:56;3.50;99.90
73955;DHT22;62306;52.516;13.290;2024-01-30T06:56:24;3.50;99.90
73955;DHT22;62306;52.516;13.290;2024-01-30T06:58:52;3.50;99.90
73955;DHT22;62306;52.516;13.290;2024-01-30T07:01:19;3.50;99.90
73955;DHT22;62306;52.516;13.290;2024-01-30T07:03:46;3.50;99.90
73955;DHT22;62306;52.516;13.290;2024-01-30T07:06:13;3.50;99.90
73955;DHT22;62306;52.516;13.290;2024-01-30T07:08:40;3.50;99.90
73955;DHT22;62306;52.516;13.290;2024-01-30T07:11:07;3.60;99.90
73955;DHT22;62306;52.516;13.290;2024-01-30T07:13:36;3.60;99.90
73955;DHT22;62306;52.516;13.290;2024-01-30T07:16:03;3.60;99.90
73955;DHT22;62306;52.516;13.290;2024-01-30T07:18:30;3.60;99.90
73955;DHT22;62306;52.516;13.290;2024-01-30T07:20:57;3.70;99.90
73955;DHT22;62306;52.516;13.290;2024-01-30T07:23:24;3.70;99.90
73955;DHT22;62306;52.516;13.290;2024-01-30T07:25:51;3.80;99.90
73955;DHT22;62306;52.516;13.290;2024-01-30T07:28:18;3.70;99.90
73955;DHT22;62306;52.516;13.290;2024-01-30T07:30:47;3.90;99.90
73955;DHT22;62306;52.516;13.290;2024-01-30T07:33:14;3.90;99.90
73955;DHT22;62306;52.516;13.290;2024-01-30T07:35:41;4.00;99.90
73955;DHT22;62306;52.516;13.290;2024-01-30T07:38:08;4.00;99.90
73955;DHT22;62306;52.516;13.290;2024-01-30T07:40:35;4.10;99.90
73955;DHT22;62306;52.516;13.290;2024-01-30T07:43:02;4.20;99.90
73955;DHT22;62306;52.516;13.290;2024-01-30T07:45:29;4.30;99.90
73955;DHT22;62306;52.516;13.290;2024-01-30T07:48:00;4.30;99.90
73955;DHT22;62306;52.516;13.290;2024-01-30T07:50:27;4.40;99.90
73955;DHT22;62306;52.516;13.290;2024-01-30T07:52:55;4.40;99.90
73955;DHT22;62306;52.516;13.290;2024-01-30T07:55:22;4.40;99.90
73955;DHT22;62306;52.516;13.290;2024-01-30T07:57:53;4.50;99.90
73955;DHT22;62306;52.516;13.290;2024-01-30T08:00:21;4.60;99.90
73955;DHT22;62306;52.516;13.290;2024-01-30T08:02:48;4.60;99.90
73955;DHT22;62306;52.516;13.290;2024-01-30T08:05:16;4.70;99.90
73955;DHT22;62306;52.516;13.290;2024-01-30T08:07:43;4.70;99.90
73955;DHT22;62306;52.516;13.290;2024-01-30T08:10:12;4.80;99.90
73955;DHT22;62306;52.516;13.290;2024-01-30T08:12:39;4.90;99.90
73955;DHT22;62306;52.516;13.290;2024-01-30T08:15:06;4.90;99.90
73955;DHT22;62306;52.516;13.290;2024-01-30T08:17:33;4.90;99.90
73955;DHT22;62306;52.516;13.290;2024-01-30T08:20:00;5.00;99.90
73955;DHT22;62306;52.516;13.290;2024-01-30T08:22:31;5.00;99.90
73955;DHT22;62306;52.516;13.290;2024-01-30T08:24:58;5.00;99.90
73955;DHT22;62306;52.516;13.290;2024-01-30T08:27:25;5.00;99.90
73955;DHT22;62306;52.516;13.290;2024-01-30T08:29:52;5.10;99.90
73955;DHT22;62306;52.516;13.290;2024-01-30T08:32:19;5.10;99.90
73955;DHT22;62306;52.516;13.290;2024-01-30T08:34:46;5.10;99.90
73955;DHT22;62306;52.516;13.290;2024-01-30T08:37:13;5.20;99.90
73955;DHT22;62306;52.516;13.290;2024-01-30T08:39:43;5.30;99.90
73955;DHT22;62306;52.516;13.290;2024-01-30T08:42:10;5.40;99.90
73955;DHT22;62306;52.516;13.290;2024-01-30T08:44:37;5.50;99.90
73955;DHT22;62306;52.516;13.290;2024-01-30T08:47:04;5.60;99.90
73955;DHT22;62306;52.516;13.290;2024-01-30T08:49:31;5.70;99.90
73955;DHT22;62306;52.516;13.290;2024-01-30T08:51:58;5.80;99.90
73955;DHT22;62306;52.516;13.290;2024-01-30T08:54:25;6.00;99.90
73955;DHT22;62306;52.516;13.290;2024-01-30T08:56:53;6.10;99.90
73955;DHT22;62306;52.516;13.290;2024-01-30T08:59:22;6.20;99.90
73955;DHT22;62306;52.516;13.290;2024-01-30T09:01:49;6.40;99.90
73955;DHT22;62306;52.516;13.290;2024-01-30T09:04:19;6.40;99.90
73955;DHT22;62306;52.516;13.290;2024-01-30T09:06:46;6.60;99.90
73955;DHT22;62306;52.516;13.290;2024-01-30T09:09:13;6.60;99.90
73955;DHT22;62306;52.516;13.290;2024-01-30T09:11:40;6.70;99.90
73955;DHT22;62306;52.516;13.290;2024-01-30T09:14:08;6.70;99.90
73955;DHT22;62306;52.516;13.290;2024-01-30T09:16:35;6.80;99.90
73955;DHT22;62306;52.516;13.290;2024-01-30T09:19:02;6.80;99.90
73955;DHT22;62306;52.516;13.290;2024-01-30T09:21:29;6.80;99.90
73955;DHT22;62306;52.516;13.290;2024-01-30T09:24:02;6.80;99.90
73955;DHT22;62306;52.516;13.290;2024-01-30T09:26:29;6.70;99.90
73955;DHT22;62306;52.516;13.290;2024-01-30T09:28:56;6.70;99.90
73955;DHT22;62306;52.516;13.290;2024-01-30T09:31:24;6.80;99.90
73955;DHT22;62306;52.516;13.290;2024-01-30T09:33:51;6.70;99.90
73955;DHT22;62306;52.516;13.290;2024-01-30T09:36:19;6.80;99.90
73955;DHT22;62306;52.516;13.290;2024-01-30T09:38:46;6.80;99.90
73955;DHT22;62306;52.516;13.290;2024-01-30T09:41:14;6.80;99.90
73955;DHT22;62306;52.516;13.290;2024-01-30T09:43:45;6.70;99.90
73955;DHT22;62306;52.516;13.290;2024-01-30T09:46:15;6.80;99.90
73955;DHT22;62306;52.516;13.290;2024-01-30T09:48:46;6.90;99.90
73955;DHT22;62306;52.516;13.290;2024-01-30T09:51:14;6.90;99.90
73955;DHT22;62306;52.516;13.290;2024-01-30T09:53:42;7.00;99.90
73955;DHT22;62306;52.516;13.290;2024-01-30T09:56:10;7.10;99.90
73955;DHT22;62306;52.516;13.290;2024-01-30T09:58:37;7.10;99.90
73955;DHT22;62306;52.516;13.290;2024-01-30T10:01:05;7.10;99.90
73955;DHT22;62306;52.516;13.290;2024-01-30T10:03:32;7.20;99.90
73955;DHT22;62306;52.516;13.290;2024-01-30T10:06:01;7.20;99.90
73955;DHT22;62306;52.516;13.290;2024-01-30T10:08:28;7.40;99.90
73955;DHT22;62306;52.516;13.290;2024-01-30T10:10:55;7.30;99.90
73955;DHT22;62306;52.516;13.290;2024-01-30T10:13:22;7.40;99.90
73955;DHT22;62306;52.516;13.290;2024-01-30T10:15:49;7.40;99.90
73955;DHT22;62306;52.516;13.290;2024-01-30T10:18:18;7.50;99.90
73955;DHT22;62306;52.516;13.290;2024-01-30T10:20:45;7.50;99.90
73955;DHT22;62306;52.516;13.290;2024-01-30T10:23:14;7.40;99.90
73955;DHT22;62306;52.516;13.290;2024-01-30T10:25:41;7.40;99.90
73955;DHT22;62306;52.516;13.290;2024-01-30T10:28:08;7.40;99.90
73955;DHT22;62306;52.516;13.290;2024-01-30T10:30:35;7.50;99.90
73955;DHT22;62306;52.516;13.290;2024-01-30T10:33:02;7.50;99.90
73955;DHT22;62306;52.516;13.290;2024-01-30T10:35:29;7.60;99.90
73955;DHT22;62306;52.516;13.290;2024-01-30T10:37:57;7.60;99.90
73955;DHT22;62306;52.516;13.290;2024-01-30T10:40:28;7.70;99.90
73955;DHT22;62306;52.516;13.290;2024-01-30T10:42:55;7.60;99.90
73955;DHT22;62306;52.516;13.290;2024-01-30T10:45:23;7.60;99.90
73955;DHT22;62306;52.516;13.290;2024-01-30T10:47:55;7.60;99.90
73955;DHT22;62306;52.516;13.290;2024-01-30T10:50:24;7.70;99.90
73955;DHT22;62306;52.516;13.290;2024-01-30T10:52:53;7.70;99.90
73955;DHT22;62306;52.516;13.290;2024-01-30T10:55:22;7.80;99.90
73955;DHT22;62306;52.516;13.290;2024-01-30T10:57:51;7.80;99.90
73955;DHT22;62306;52.516;13.290;2024-01-30T11:00:19;7.90;99.90
73955;DHT22;62306;52.516;13.290;2024-01-30T11:02:49;7.90;99.90
73955;DHT22;62306;52.516;13.290;2024-01-30T11:05:23;8.00;99.90
73955;DHT22;62306;52.516;13.290;2024-01-30T11:07:51;8.00;99.90
73955;DHT22;62306;52.516;13.290;2024-01-30T11:10:19;8.10;99.90
73955;DHT22;62306;52.516;13.290;2024-01-30T11:12:46;8.10;99.90
73955;DHT22;62306;52.516;13.290;2024-01-30T11:15:16;8.20;99.90
73955;DHT22;62306;52.516;13.290;2024-01-30T11:17:44;8.30;99.90
73955;DHT22;62306;52.516;13.290;2024-01-30T11:20:14;8.40;99.90
73955;DHT22;62306;52.516;13.290;2024-01-30T11:22:42;8.50;99.90
73955;DHT22;62306;52.516;13.290;2024-01-30T11:25:12;8.40;99.90
73955;DHT22;62306;52.516;13.290;2024-01-30T11:27:39;8.40;99.90
73955;DHT22;62306;52.516;13.290;2024-01-30T11:30:08;8.50;99.90
73955;DHT22;62306;52.516;13.290;2024-01-30T11:32:37;8.50;99.90
73955;DHT22;62306;52.516;13.290;2024-01-30T11:35:04;8.50;99.90
73955;DHT22;62306;52.516;13.290;2024-01-30T11:37:37;8.50;99.70
73955;DHT22;62306;52.516;13.290;2024-01-30T11:40:05;8.50;99.90
73955;DHT22;62306;52.516;13.290;2024-01-30T11:42:34;8.50;99.80
73955;DHT22;62306;52.516;13.290;2024-01-30T11:45:05;8.50;99.70
73955;DHT22;62306;52.516;13.290;2024-01-30T11:47:36;8.60;99.90
73955;DHT22;62306;52.516;13.290;2024-01-30T11:50:04;8.60;99.80
73955;DHT22;62306;52.516;13.290;2024-01-30T11:52:32;8.70;99.80
73955;DHT22;62306;52.516;13.290;2024-01-30T11:55:00;8.80;99.80
73955;DHT22;62306;52.516;13.290;2024-01-30T11:57:28;8.90;99.40
73955;DHT22;62306;52.516;13.290;2024-01-30T11:59:55;8.90;99.40
73955;DHT22;62306;52.516;13.290;2024-01-30T12:02:22;9.00;99.30
73955;DHT22;62306;52.516;13.290;2024-01-30T12:04:50;9.00;99.40
73955;DHT22;62306;52.516;13.290;2024-01-30T12:07:17;9.00;99.50
73955;DHT22;62306;52.516;13.290;2024-01-30T12:09:52;9.00;99.30
73955;DHT22;62306;52.516;13.290;2024-01-30T12:12:21;9.10;99.00
73955;DHT22;62306;52.516;13.290;2024-01-30T12:14:49;9.10;99.10
73955;DHT22;62306;52.516;13.290;2024-01-30T12:17:24;9.10;99.40
73955;DHT22;62306;52.516;13.290;2024-01-30T12:20:02;9.10;99.30
73955;DHT22;62306;52.516;13.290;2024-01-30T12:22:30;9.10;99.20
73955;DHT22;62306;52.516;13.290;2024-01-30T12:24:57;9.10;99.30
73955;DHT22;62306;52.516;13.290;2024-01-30T12:27:24;9.10;99.30
73955;DHT22;62306;52.516;13.290;2024-01-30T12:29:56;9.20;99.30
73955;DHT22;62306;52.516;13.290;2024-01-30T12:32:23;9.10;99.40
73955;DHT22;62306;52.516;13.290;2024-01-30T12:34:54;9.20;99.20
73955;DHT22;62306;52.516;13.290;2024-01-30T12:37:21;9.10;99.50
73955;DHT22;62306;52.516;13.290;2024-01-30T12:39:51;9.00;99.80
73955;DHT22;62306;52.516;13.290;2024-01-30T12:42:19;9.00;99.90
73955;DHT22;62306;52.516;13.290;2024-01-30T12:44:47;8.90;99.90
73955;DHT22;62306;52.516;13.290;2024-01-30T12:47:14;8.80;99.90
73955;DHT22;62306;52.516;13.290;2024-01-30T12:49:42;8.80;99.90
73955;DHT22;62306;52.516;13.290;2024-01-30T12:52:11;8.80;99.90
73955;DHT22;62306;52.516;13.290;2024-01-30T12:54:38;8.90;99.90
73955;DHT22;62306;52.516;13.290;2024-01-30T12:57:05;9.00;99.90
73955;DHT22;62306;52.516;13.290;2024-01-30T12:59:31;8.90;99.90
73955;DHT22;62306;52.516;13.290;2024-01-30T13:02:00;8.90;99.90
73955;DHT22;62306;52.516;13.290;2024-01-30T13:04:29;8.90;99.90
73955;DHT22;62306;52.516;13.290;2024-01-30T13:06:56;9.00;99.90
73955;DHT22;62306;52.516;13.290;2024-01-30T13:09:24;9.00;99.90
73955;DHT22;62306;52.516;13.290;2024-01-30T13:11:52;8.90;99.90
73955;DHT22;62306;52.516;13.290;2024-01-30T13:14:19;8.80;99.90
73955;DHT22;62306;52.516;13.290;2024-01-30T13:16:46;8.70;99.90
73955;DHT22;62306;52.516;13.290;2024-01-30T13:19:13;8.70;99.90
73955;DHT22;62306;52.516;13.290;2024-01-30T13:21:40;8.80;99.90
73955;DHT22;62306;52.516;13.290;2024-01-30T13:24:07;8.80;99.90
73955;DHT22;62306;52.516;13.290;2024-01-30T13:26:35;8.70;99.90
73955;DHT22;62306;52.516;13.290;2024-01-30T13:29:02;8.70;99.90
73955;DHT22;62306;52.516;13.290;2024-01-30T13:31:29;8.70;99.90
73955;DHT22;62306;52.516;13.290;2024-01-30T13:33:56;8.80;99.90
73955;DHT22;62306;52.516;13.290;2024-01-30T13:36:23;8.80;99.90
73955;DHT22;62306;52.516;13.290;2024-01-30T13:38:50;8.90;99.90
73955;DHT22;62306;52.516;13.290;2024-01-30T13:41:17;8.90;99.90
73955;DHT22;62306;52.516;13.290;2024-01-30T13:43:45;9.00;99.90
73955;DHT22;62306;52.516;13.290;2024-01-30T13:46:12;9.00;99.90
73955;DHT22;62306;52.516;13.290;2024-01-30T13:48:39;9.10;99.90
73955;DHT22;62306;52.516;13.290;2024-01-30T13:51:06;9.10;99.90
73955;DHT22;62306;52.516;13.290;2024-01-30T13:53:33;9.10;99.90
73955;DHT22;62306;52.516;13.290;2024-01-30T13:56:00;9.10;99.90
73955;DHT22;62306;52.516;13.290;2024-01-30T13:58:27;9.00;99.90
73955;DHT22;62306;52.516;13.290;2024-01-30T14:00:56;9.00;99.90
73955;DHT22;62306;52.516;13.290;2024-01-30T14:03:22;8.90;99.90
73955;DHT22;62306;52.516;13.290;2024-01-30T14:05:50;9.00;99.90
73955;DHT22;62306;52.516;13.290;2024-01-30T14:08:17;8.90;99.90
73955;DHT22;62306;52.516;13.290;2024-01-30T14:10:44;9.00;99.90
73955;DHT22;62306;52.516;13.290;2024-01-30T14:13:10;9.00;99.90
73955;DHT22;62306;52.516;13.290;2024-01-30T14:15:38;8.90;99.90
73955;DHT22;62306;52.516;13.290;2024-01-30T14:18:06;8.90;99.90
73955;DHT22;62306;52.516;13.290;2024-01-30T14:20:34;8.90;99.90
73955;DHT22;62306;52.516;13.290;2024-01-30T14:23:01;8.90;99.90
73955;DHT22;62306;52.516;13.290;2024-01-30T14:25:28;8.90;99.90
73955;DHT22;62306;52.516;13.290;2024-01-30T14:27:55;8.90;99.90
73955;DHT22;62306;52.516;13.290;2024-01-30T14:30:22;9.00;99.90
73955;DHT22;62306;52.516;13.290;2024-01-30T14:32:49;9.00;99.90
73955;DHT22;62306;52.516;13.290;2024-01-30T14:35:18;9.00;99.90
73955;DHT22;62306;52.516;13.290;2024-01-30T14:37:45;9.00;99.90
73955;DHT22;62306;52.516;13.290;2024-01-30T14:40:12;8.90;99.90
73955;DHT22;62306;52.516;13.290;2024-01-30T14:42:39;8.90;99.90
73955;DHT22;62306;52.516;13.290;2024-01-30T14:45:06;8.90;99.90
73955;DHT22;62306;52.516;13.290;2024-01-30T14:47:33;8.90;99.90
73955;DHT22;62306;52.516;13.290;2024-01-30T14:50:01;8.80;99.90
73955;DHT22;62306;52.516;13.290;2024-01-30T14:52:31;8.80;99.90
73955;DHT22;62306;52.516;13.290;2024-01-30T14:54:58;8.70;99.90
73955;DHT22;62306;52.516;13.290;2024-01-30T14:57:25;8.70;99.90
73955;DHT22;62306;52.516;13.290;2024-01-30T14:59:52;8.70;99.90
73955;DHT22;62306;52.516;13.290;2024-01-30T15:02:19;8.60;99.90
73955;DHT22;62306;52.516;13.290;2024-01-30T15:04:46;8.60;99.90
73955;DHT22;62306;52.516;13.290;2024-01-30T15:07:13;8.60;99.90
73955;DHT22;62306;52.516;13.290;2024-01-30T15:09:41;8.60;99.90
73955;DHT22;62306;52.516;13.290;2024-01-30T15:12:08;8.60;99.90
73955;DHT22;62306;52.516;13.290;2024-01-30T15:14:35;8.50;99.90
73955;DHT22;62306;52.516;13.290;2024-01-30T15:17:02;8.50;99.90
73955;DHT22;62306;52.516;13.290;2024-01-30T15:19:29;8.50;99.90
73955;DHT22;62306;52.516;13.290;2024-01-30T15:21:56;8.40;99.90
73955;DHT22;62306;52.516;13.290;2024-01-30T15:24:23;8.40;99.90
73955;DHT22;62306;52.516;13.290;2024-01-30T15:26:52;8.30;99.90
73955;DHT22;62306;52.516;13.290;2024-01-30T15:29:20;8.30;99.90
73955;DHT22;62306;52.516;13.290;2024-01-30T15:31:48;8.30;99.90